Terminal Aerodrome Forecast
Issued by NWS

Home | Current Version | Previous Version | Text Only | Print | Product List | Glossary On
Versions: 1 2 3 4 5 6 7 8 9 10 11 12 13 14 15 16 17 18 19
094
FTUS46 KLOX 221158 AAA
TAFPMD
TAF AMD
KPMD 221158Z 2212/2312 23018KT P6SM BKN110
     FM221800 24025G35KT P6SM VCSH SCT035 BKN050
     FM230400 24017G25KT P6SM BKN050
     FM231000 23012KT P6SM BKN050=

USA.gov is the U.S. government's official web portal to all federal, state and local government web resources and services.